| time (UTC) | temp C | wind direction | speed KPH | gust KPH | rain 1hr cm | rain 24hr cm | rain mn cm | humidity % | barometer mb |
| 20260507094544 | 8 | 322 | 0.0 | 0.0 | 0.08 | 1.24 | 0.46 | 97 | 1008.8 |
| 20260507093043 | 8 | 331 | 0.0 | 0.0 | 0.10 | 1.24 | 0.46 | 97 | 1008.4 |
| 20260507091543 | 8 | 271 | 0.0 | 0.0 | 0.18 | 1.24 | 0.46 | 96 | 1008.6 |
| 20260507090044 | 8 | 297 | 0.0 | 0.0 | 0.25 | 1.22 | 0.43 | 96 | 1008.5 |
| 20260507084539 | 8 | 255 | 1.6 | 6.4 | 0.25 | 1.17 | 0.38 | 96 | 1008.8 |
| 20260507083032 | 8 | 322 | 0.0 | 3.2 | 0.25 | 1.14 | 0.36 | 96 | 1008.5 |
| 20260507081530 | 9 | 355 | 0.0 | 3.2 | 0.20 | 1.07 | 0.28 | 96 | 1009.1 |
| 20260507080029 | 9 | 242 | 0.0 | 0.0 | 0.13 | 0.97 | 0.18 | 96 | 1009.0 |
| 20260507074526 | 9 | 263 | 0.0 | 0.0 | 0.08 | 0.91 | 0.13 | 96 | 1009.1 |
| 20260507073027 | 9 | 38 | 0.0 | 4.8 | 0.05 | 0.89 | 0.10 | 96 | 1008.8 |
| 20260507071528 | 9 | 164 | 1.6 | 4.8 | 0.03 | 0.86 | 0.08 | 96 | 1008.6 |
| 20260507070023 | 10 | 275 | 1.6 | 8.0 | 0.00 | 0.84 | 0.05 | 96 | 1008.5 |
| 20260507064531 | 10 | 294 | 0.0 | 4.8 | 0.00 | 0.84 | 0.05 | 96 | 1008.1 |
| 20260507063019 | 10 | 300 | 1.6 | 4.8 | 0.00 | 0.84 | 0.05 | 96 | 1007.5 |
| 20260507061515 | 10 | 320 | 1.6 | 6.4 | 0.00 | 0.84 | 0.05 | 96 | 1007.9 |
| 20260507060015 | 10 | 318 | 1.6 | 6.4 | 0.00 | 0.84 | 0.05 | 97 | 1008.2 |
| 20260507054511 | 10 | 313 | 3.2 | 6.4 | 0.00 | 0.84 | 0.05 | 96 | 1008.2 |
| 20260507053009 | 11 | 315 | 1.6 | 4.8 | 0.00 | 0.84 | 0.05 | 96 | 1008.3 |
| 20260507051507 | 11 | 315 | 0.0 | 4.8 | 0.03 | 0.84 | 0.05 | 97 | 1008.5 |
| 20260507050010 | 11 | 311 | 0.0 | 3.2 | 0.05 | 0.84 | 0.05 | 97 | 1008.7 |
| 20260507044504 | 11 | 306 | 1.6 | 4.8 | 0.05 | 0.84 | 0.05 | 97 | 1008.5 |
| 20260507043002 | 11 | 315 | 0.0 | 3.2 | 0.05 | 0.84 | 0.05 | 97 | 1008.4 |
| 20260507041600 | 11 | 5 | 0.0 | 3.2 | 0.03 | 0.81 | 0.03 | 97 | 1008.6 |
| 20260507040058 | 11 | 300 | 0.0 | 4.8 | 0.03 | 0.79 | 0.00 | 97 | 1008.6 |
| 20260507034557 | 12 | 281 | 1.6 | 8.0 | 0.13 | 0.79 | 0.79 | 97 | 1008.6 |
| 20260507033054 | 12 | 238 | 1.6 | 4.8 | 0.13 | 0.79 | 0.79 | 97 | 1008.5 |
| 20260507031553 | 12 | 302 | 0.0 | 6.4 | 0.13 | 0.79 | 0.79 | 97 | 1008.5 |
| 20260507030051 | 13 | 291 | 1.6 | 11.3 | 0.10 | 0.76 | 0.76 | 97 | 1008.3 |
| 20260507024550 | 14 | 305 | 3.2 | 6.4 | 0.00 | 0.66 | 0.66 | 98 | 1008.0 |
| 20260507023049 | 13 | 214 | 0.0 | 3.2 | 0.00 | 0.66 | 0.66 | 98 | 1008.0 |
| 20260507021549 | 13 | 215 | 1.6 | 8.0 | 0.00 | 0.66 | 0.66 | 98 | 1007.9 |
| 20260507014554 | 13 | 300 | 1.6 | 4.8 | 0.00 | 0.66 | 0.66 | 98 | 1008.0 |
| 20260507013047 | 13 | 303 | 1.6 | 6.4 | 0.00 | 0.66 | 0.66 | 98 | 1007.9 |
| 20260507011547 | 13 | 304 | 1.6 | 8.0 | 0.00 | 0.66 | 0.66 | 98 | 1007.9 |
| 20260507010058 | 13 | 147 | 1.6 | 6.4 | 0.00 | 0.66 | 0.66 | 97 | 1007.8 |
| 20260507004546 | 13 | 246 | 3.2 | 9.7 | 0.00 | 0.66 | 0.66 | 98 | 1008.0 |
| 20260507003045 | 13 | 242 | 0.0 | 11.3 | 0.00 | 0.66 | 0.66 | 97 | 1008.1 |
| 20260507001554 | 13 | 24 | 1.6 | 6.4 | 0.00 | 0.66 | 0.66 | 97 | 1008.0 |
| 20260507000044 | 13 | 346 | 0.0 | 9.7 | 0.03 | 0.66 | 0.66 | 97 | 1007.8 |
| 20260506234544 | 13 | 117 | 3.2 | 9.7 | 0.05 | 0.66 | 0.66 | 97 | 1007.6 |
| 20260506233044 | 13 | 252 | 1.6 | 6.4 | 0.08 | 0.66 | 0.66 | 97 | 1007.5 |
| 20260506231602 | 13 | 178 | 0.0 | 4.8 | 0.10 | 0.66 | 0.66 | 97 | 1007.3 |
| 20260506224542 | 13 | 71 | 0.0 | 8.0 | 0.05 | 0.61 | 0.61 | 97 | 1007.4 |
| 20260506223041 | 13 | 178 | 1.6 | 11.3 | 0.05 | 0.58 | 0.58 | 96 | 1007.4 |
| 20260506221551 | 14 | 331 | 1.6 | 6.4 | 0.05 | 0.56 | 0.56 | 96 | 1007.2 |
| 20260506220048 | 14 | 288 | 1.6 | 6.4 | 0.10 | 0.56 | 0.56 | 96 | 1007.3 |
| 20260506214541 | 14 | 331 | 0.0 | 6.4 | 0.20 | 0.56 | 0.56 | 96 | 1007.3 |
| 20260506213044 | 14 | 109 | 1.6 | 6.4 | 0.18 | 0.53 | 0.53 | 96 | 1007.5 |
| 20260506211537 | 14 | 328 | 1.6 | 6.4 | 0.20 | 0.51 | 0.51 | 96 | 1007.6 |
| 20260506210035 | 14 | 250 | 3.2 | 9.7 | 0.18 | 0.43 | 0.43 | 96 | 1007.6 |
| 20260506204536 | 14 | 73 | 1.6 | 9.7 | 0.13 | 0.36 | 0.36 | 96 | 1007.9 |
| 20260506203034 | 14 | 200 | 3.2 | 6.4 | 0.13 | 0.36 | 0.36 | 95 | 1007.9 |
| 20260506201539 | 14 | 148 | 3.2 | 12.9 | 0.10 | 0.30 | 0.30 | 95 | 1007.9 |
| 20260506200030 | 14 | 219 | 3.2 | 9.7 | 0.05 | 0.25 | 0.25 | 95 | 1008.1 |
| 20260506194529 | 14 | 73 | 3.2 | 6.4 | 0.05 | 0.23 | 0.23 | 95 | 1008.4 |
| 20260506193028 | 14 | 229 | 3.2 | 9.7 | 0.08 | 0.23 | 0.23 | 95 | 1008.5 |
| 20260506191528 | 14 | 264 | 1.6 | 9.7 | 0.13 | 0.20 | 0.20 | 94 | 1008.4 |
| 20260506190029 | 14 | 95 | 3.2 | 14.5 | 0.18 | 0.20 | 0.20 | 93 | 1008.8 |
| 20260506184526 | 15 | 101 | 1.6 | 8.0 | 0.18 | 0.18 | 0.18 | 92 | 1008.5 |
| 20260506183024 | 15 | 92 | 1.6 | 8.0 | 0.15 | 0.15 | 0.15 | 91 | 1008.6 |
| 20260506181522 | 15 | 81 | 1.6 | 6.4 | 0.08 | 0.08 | 0.08 | 89 | 1009.0 |
| 20260506180024 | 16 | 190 | 3.2 | 9.7 | 0.03 | 0.03 | 0.03 | 87 | 1009.2 |
| 20260506174524 | 17 | 238 | 1.6 | 8.0 | 0.00 | 0.00 | 0.00 | 84 | 1009.5 |
| 20260506173018 | 17 | 32 | 3.2 | 14.5 | 0.00 | 0.00 | 0.00 | 80 | 1009.6 |
| 20260506171533 | 18 | 240 | 3.2 | 19.3 | 0.00 | 0.00 | 0.00 | 75 | 1009.7 |
| 20260506170019 | 19 | 200 | 3.2 | 14.5 | 0.00 | 0.00 | 0.00 | 70 | 1009.6 |
| 20260506164522 | 20 | 337 | 4.8 | 16.1 | 0.00 | 0.00 | 0.00 | 70 | 1009.4 |
| 20260506163016 | 20 | 94 | 4.8 | 19.3 | 0.00 | 0.00 | 0.00 | 69 | 1009.5 |
| 20260506161516 | 20 | 159 | 4.8 | 25.7 | 0.00 | 0.00 | 0.00 | 69 | 1009.6 |
| 20260506160016 | 20 | 59 | 3.2 | 9.7 | 0.00 | 0.00 | 0.00 | 68 | 1009.9 |
| 20260506154514 | 20 | 225 | 3.2 | 11.3 | 0.00 | 0.00 | 0.00 | 68 | 1009.9 |
| 20260506153013 | 20 | 130 | 3.2 | 16.1 | 0.00 | 0.00 | 0.00 | 69 | 1010.0 |
| 20260506151511 | 20 | 115 | 4.8 | 14.5 | 0.00 | 0.00 | 0.00 | 67 | 1010.2 |
| 20260506150009 | 20 | 192 | 3.2 | 8.0 | 0.00 | 0.00 | 0.00 | 68 | 1010.2 |
| 20260506144508 | 20 | 160 | 1.6 | 16.1 | 0.00 | 0.00 | 0.00 | 69 | 1010.3 |
| 20260506143003 | 19 | 304 | 6.4 | 20.9 | 0.00 | 0.00 | 0.00 | 73 | 1010.4 |
| 20260506141501 | 18 | 109 | 1.6 | 14.5 | 0.00 | 0.00 | 0.00 | 73 | 1010.6 |
| 20260506140104 | 18 | 140 | 4.8 | 12.9 | 0.00 | 0.00 | 0.00 | 73 | 1010.4 |
| 20260506134559 | 18 | 328 | 6.4 | 16.1 | 0.00 | 0.00 | 0.00 | 74 | 1010.1 |
| 20260506133056 | 18 | 188 | 3.2 | 14.5 | 0.00 | 0.00 | 0.00 | 77 | 1010.2 |
| 20260506131606 | 17 | 44 | 4.8 | 11.3 | 0.00 | 0.00 | 0.00 | 78 | 1010.6 |
| 20260506130054 | 17 | 11 | 3.2 | 14.5 | 0.00 | 0.00 | 0.00 | 80 | 1010.9 |
| 20260506124549 | 17 | 104 | 3.2 | 14.5 | 0.00 | 0.00 | 0.00 | 82 | 1011.0 |
| 20260506123048 | 16 | 176 | 3.2 | 9.7 | 0.00 | 0.00 | 0.00 | 83 | 1011.1 |
| 20260506121540 | 16 | 302 | 0.0 | 9.7 | 0.00 | 0.00 | 0.00 | 86 | 1011.1 |
| 20260506120040 | 15 | 148 | 3.2 | 8.0 | 0.00 | 0.00 | 0.00 | 87 | 1011.3 |
| 20260506114543 | 15 | 303 | 3.2 | 14.5 | 0.00 | 0.00 | 0.00 | 89 | 1011.1 |
| 20260506113038 | 14 | 38 | 1.6 | 8.0 | 0.00 | 0.00 | 0.00 | 90 | 1011.5 |
| 20260506111538 | 13 | 266 | 3.2 | 11.3 | 0.00 | 0.00 | 0.00 | 90 | 1011.7 |
| 20260506110037 | 13 | 110 | 3.2 | 9.7 | 0.00 | 0.00 | 0.00 | 91 | 1011.7 |
| 20260506104537 | 13 | 84 | 1.6 | 11.3 | 0.00 | 0.00 | 0.00 | 92 | 1011.5 |
| 20260506103035 | 13 | 67 | 0.0 | 4.8 | 0.00 | 0.00 | 0.00 | 91 | 1011.5 |
| 20260506101535 | 13 | 78 | 0.0 | 9.7 | 0.00 | 0.00 | 0.00 | 91 | 1011.3 |
| 20260506100034 | 13 | 324 | 1.6 | 8.0 | 0.00 | 0.00 | 0.00 | 91 | 1011.4 |